createdAt,value
2023-02-09T00:02:14.441Z,-0.64
2023-02-09T00:04:42.031Z,-0.57
2023-02-09T00:07:09.284Z,-0.36
2023-02-09T00:09:36.589Z,-0.46
2023-02-09T00:12:22.618Z,-0.54
2023-02-09T00:14:49.975Z,-0.41
2023-02-09T00:17:17.186Z,-0.42
2023-02-09T00:19:44.393Z,-0.45
2023-02-09T00:22:11.727Z,-0.46
2023-02-09T00:24:39.035Z,-0.47
2023-02-09T00:27:06.277Z,-0.48
2023-02-09T00:29:33.631Z,-0.44
2023-02-09T00:32:00.908Z,-0.32
2023-02-09T00:34:28.328Z,-0.28
2023-02-09T00:36:55.677Z,-0.27
2023-02-09T00:39:23.654Z,-0.39
2023-02-09T00:42:06.148Z,-0.29
2023-02-09T00:44:35.753Z,-0.26
2023-02-09T00:47:04.620Z,-0.45
2023-02-09T00:49:31.974Z,-0.39
2023-02-09T00:52:01.628Z,-0.40
2023-02-09T00:54:28.933Z,-0.34
2023-02-09T00:56:56.263Z,-0.40
2023-02-09T00:59:23.465Z,-0.38
2023-02-09T01:01:50.673Z,-0.37
2023-02-09T01:04:18.121Z,-0.31
2023-02-09T01:06:47.711Z,-0.42
2023-02-09T01:09:16.967Z,-0.33
2023-02-09T01:11:44.234Z,-0.30
2023-02-09T01:14:11.947Z,-0.33
2023-02-09T01:16:40.148Z,-0.28
2023-02-09T01:19:07.597Z,-0.22
2023-02-09T01:21:34.805Z,-0.09
2023-02-09T01:24:02.592Z,-0.16
2023-02-09T01:26:30.009Z,-0.23
2023-02-09T01:28:57.305Z,-0.46
2023-02-09T01:31:32.961Z,-0.30
2023-02-09T01:34:03.845Z,-0.41
2023-02-09T01:36:33.605Z,-0.45
2023-02-09T01:39:04.757Z,-0.40
2023-02-09T01:41:35.309Z,-0.39
2023-02-09T01:44:30.217Z,-0.33
2023-02-09T01:46:57.421Z,-0.45
2023-02-09T01:49:28.501Z,-0.45
2023-02-09T01:52:11.157Z,-0.55
2023-02-09T01:55:02.027Z,-0.53
2023-02-09T01:57:39.748Z,-0.53
2023-02-09T02:00:17.882Z,-0.30
2023-02-09T02:03:07.551Z,-0.44
2023-02-09T02:05:40.128Z,-0.46
2023-02-09T02:08:23.599Z,-0.45
2023-02-09T02:10:52.960Z,-0.45
2023-02-09T02:13:20.929Z,-0.22
2023-02-09T02:16:24.906Z,-0.28
2023-02-09T02:19:21.618Z,-0.39
2023-02-09T02:22:51.374Z,-0.55
2023-02-09T02:26:45.265Z,-0.72
2023-02-09T02:29:52.600Z,-0.67
2023-02-09T02:33:00.685Z,-0.82
2023-02-09T02:36:16.730Z,-0.84
2023-02-09T02:39:06.277Z,-0.78
2023-02-09T02:42:37.444Z,-0.94
2023-02-09T02:45:43.290Z,-0.98
2023-02-09T02:48:42.736Z,-1.08
2023-02-09T02:51:46.086Z,-1.11
2023-02-09T02:54:24.196Z,-1.13
2023-02-09T02:57:05.463Z,-1.16
2023-02-09T02:59:48.587Z,-1.22
2023-02-09T03:02:23.715Z,-1.26
2023-02-09T03:04:55.576Z,-1.38
2023-02-09T03:07:22.961Z,-1.38
2023-02-09T03:09:56.158Z,-1.41
2023-02-09T03:12:38.716Z,-1.39
2023-02-09T03:15:49.884Z,-1.29
2023-02-09T03:18:48.466Z,-1.28
2023-02-09T03:21:26.966Z,-1.35
2023-02-09T03:24:09.444Z,-1.35
2023-02-09T03:27:00.991Z,-1.31
2023-02-09T03:29:30.189Z,-1.34
2023-02-09T03:31:57.680Z,-1.30
2023-02-09T03:34:24.981Z,-1.22
2023-02-09T03:36:56.516Z,-1.26
2023-02-09T03:39:24.191Z,-1.22
2023-02-09T03:41:51.586Z,-1.20
2023-02-09T03:44:28.041Z,-1.25
2023-02-09T03:47:01.308Z,-1.26
2023-02-09T03:49:39.782Z,-1.24
2023-02-09T03:52:12.410Z,-1.30
2023-02-09T03:54:40.380Z,-1.37
2023-02-09T03:57:08.688Z,-1.36
2023-02-09T03:59:37.640Z,-1.26
2023-02-09T04:02:08.638Z,-1.18
2023-02-09T04:04:37.498Z,-1.20
2023-02-09T04:07:04.875Z,-1.13
2023-02-09T04:09:32.559Z,-1.15
2023-02-09T04:11:59.853Z,-1.21
2023-02-09T04:14:27.086Z,-1.22
2023-02-09T04:16:54.298Z,-1.16
2023-02-09T04:19:21.576Z,-1.18
2023-02-09T04:21:48.802Z,-1.07
2023-02-09T04:24:21.807Z,-0.98
2023-02-09T04:26:49.057Z,-0.97
2023-02-09T04:29:16.317Z,-1.09
2023-02-09T04:31:43.618Z,-1.08
2023-02-09T04:34:10.839Z,-1.08
2023-02-09T04:36:38.030Z,-1.04
2023-02-09T04:39:05.236Z,-1.04
2023-02-09T04:41:32.433Z,-1.06
2023-02-09T04:44:00.247Z,-1.02
2023-02-09T04:46:27.509Z,-1.04
2023-02-09T04:48:54.831Z,-1.09
2023-02-09T04:51:22.191Z,-1.02
2023-02-09T04:53:49.443Z,-1.04
2023-02-09T04:56:17.228Z,-1.12
2023-02-09T04:59:03.806Z,-1.10
2023-02-09T05:01:31.612Z,-1.15
2023-02-09T05:03:58.978Z,-1.22
2023-02-09T05:06:26.231Z,-1.18
2023-02-09T05:08:53.443Z,-1.27
2023-02-09T05:11:20.693Z,-1.34
2023-02-09T05:13:48.549Z,-1.37
2023-02-09T05:16:20.189Z,-1.30
2023-02-09T05:18:47.660Z,-1.34
2023-02-09T05:21:14.895Z,-1.48
2023-02-09T05:23:42.526Z,-1.51
2023-02-09T05:26:10.150Z,-1.42
2023-02-09T05:28:37.434Z,-1.38
2023-02-09T05:31:05.009Z,-1.35
2023-02-09T05:33:32.413Z,-1.29
2023-02-09T05:35:59.783Z,-1.16
2023-02-09T05:38:27.028Z,-1.08
2023-02-09T05:40:54.320Z,-1.26
2023-02-09T05:43:21.533Z,-1.24
2023-02-09T05:45:48.738Z,-1.23
2023-02-09T05:48:16.040Z,-1.21
2023-02-09T05:50:43.580Z,-1.17
2023-02-09T05:53:11.009Z,-1.13
2023-02-09T05:55:38.349Z,-1.04
2023-02-09T05:58:05.761Z,-1.10
2023-02-09T06:00:33.208Z,-1.04
2023-02-09T06:03:00.442Z,-1.04
2023-02-09T06:05:28.232Z,-1.02
2023-02-09T06:07:56.197Z,-1.11
2023-02-09T06:10:23.573Z,-1.23
2023-02-09T06:12:50.893Z,-1.24
2023-02-09T06:15:18.225Z,-1.25
2023-02-09T06:17:46.316Z,-1.35
2023-02-09T06:20:13.713Z,-1.39
2023-02-09T06:22:41.306Z,-1.35
2023-02-09T06:25:08.770Z,-1.36
2023-02-09T06:27:36.946Z,-1.33
2023-02-09T06:30:06.197Z,-1.26
2023-02-09T06:32:33.509Z,-1.25
2023-02-09T06:35:00.796Z,-1.27
2023-02-09T06:37:31.079Z,-1.15
2023-02-09T06:39:58.365Z,-1.20
2023-02-09T06:42:43.552Z,-1.20
2023-02-09T06:45:14.354Z,-1.15
2023-02-09T06:47:45.801Z,-1.21
2023-02-09T06:50:16.504Z,-1.17
2023-02-09T06:52:43.949Z,-1.08
2023-02-09T06:55:12.010Z,-1.04
2023-02-09T06:57:39.917Z,-1.07
2023-02-09T07:00:09.723Z,-1.06
2023-02-09T07:02:37.112Z,-1.05
2023-02-09T07:05:04.682Z,-0.99
2023-02-09T07:07:31.986Z,-0.91
2023-02-09T07:09:59.353Z,-0.98
2023-02-09T07:12:26.545Z,-1.06
2023-02-09T07:14:53.823Z,-1.06
2023-02-09T07:17:21.095Z,-1.06
2023-02-09T07:19:49.292Z,-1.11
2023-02-09T07:22:16.709Z,-1.15
2023-02-09T07:24:44.018Z,-1.15
2023-02-09T07:27:11.338Z,-1.18
2023-02-09T07:29:38.517Z,-1.16
2023-02-09T07:32:08.067Z,-1.18
2023-02-09T07:34:35.897Z,-1.17
2023-02-09T07:37:04.507Z,-1.12
2023-02-09T07:39:32.327Z,-1.08
2023-02-09T07:41:59.883Z,-1.06
2023-02-09T07:44:42.850Z,-1.05
2023-02-09T07:47:10.298Z,-1.08
2023-02-09T07:49:37.772Z,-1.08
2023-02-09T07:52:05.303Z,-0.99
2023-02-09T07:54:32.770Z,-0.98
2023-02-09T07:56:59.953Z,-0.93
2023-02-09T07:59:27.418Z,-0.86
2023-02-09T08:01:54.870Z,-0.72
2023-02-09T08:04:22.763Z,-0.63
2023-02-09T08:06:50.345Z,-0.58
2023-02-09T08:09:17.634Z,-0.44
2023-02-09T08:12:02.669Z,-0.31
2023-02-09T08:14:48.159Z,-0.20
2023-02-09T08:17:20.501Z,-0.22
2023-02-09T08:20:15.240Z,-0.33
2023-02-09T08:22:49.207Z,-0.32
2023-02-09T08:25:21.463Z,-0.30
2023-02-09T08:27:50.619Z,-0.27
2023-02-09T08:30:19.293Z,-0.14
2023-02-09T08:32:46.632Z,-0.04
2023-02-09T08:35:14.307Z,0.10
2023-02-09T08:37:41.691Z,0.08
2023-02-09T08:40:10.053Z,0.02
2023-02-09T08:42:37.293Z,0.21
2023-02-09T08:45:05.098Z,0.29
2023-02-09T08:47:32.419Z,0.33
2023-02-09T08:49:59.662Z,0.39
2023-02-09T08:52:26.987Z,0.58
2023-02-09T08:54:54.382Z,0.35
2023-02-09T08:57:23.120Z,0.49
2023-02-09T08:59:51.490Z,0.48
2023-02-09T09:02:18.766Z,0.49
2023-02-09T09:04:46.910Z,0.56
2023-02-09T09:07:14.977Z,0.71
2023-02-09T09:09:42.228Z,1.03
2023-02-09T09:12:09.476Z,1.11
2023-02-09T09:14:36.821Z,1.22
2023-02-09T09:17:04.179Z,1.35
2023-02-09T09:19:31.494Z,1.37
2023-02-09T09:22:00.341Z,1.14
2023-02-09T09:24:28.269Z,1.32
2023-02-09T09:26:56.081Z,1.39
2023-02-09T09:29:24.989Z,1.35
2023-02-09T09:31:52.468Z,1.27
2023-02-09T09:34:20.049Z,1.55
2023-02-09T09:36:47.300Z,1.57
2023-02-09T09:39:14.600Z,1.06
2023-02-09T09:41:41.903Z,1.15
2023-02-09T09:44:52.188Z,1.29
2023-02-09T09:47:36.366Z,1.36
2023-02-09T09:50:19.194Z,1.54
2023-02-09T09:53:12.504Z,1.90
2023-02-09T09:55:39.716Z,2.14
2023-02-09T09:58:08.106Z,2.37
2023-02-09T10:00:41.420Z,2.10
2023-02-09T10:03:21.400Z,2.18
2023-02-09T10:05:56.830Z,1.81
2023-02-09T10:08:43.984Z,2.21
2023-02-09T10:11:17.867Z,1.74
2023-02-09T10:13:52.680Z,1.92
2023-02-09T10:16:25.679Z,1.99
2023-02-09T10:18:59.617Z,2.63
2023-02-09T10:21:33.285Z,2.84
2023-02-09T10:24:00.450Z,2.31
2023-02-09T10:26:34.770Z,2.64
2023-02-09T10:29:11.177Z,2.88
2023-02-09T10:32:27.227Z,3.01
2023-02-09T10:34:57.857Z,2.07
2023-02-09T10:37:34.436Z,2.69
2023-02-09T10:40:27.044Z,3.41
2023-02-09T10:43:04.714Z,7.83
2023-02-09T10:45:44.020Z,10.93
2023-02-09T10:48:12.972Z,11.37
2023-02-09T10:51:06.656Z,5.99
2023-02-09T10:54:06.107Z,8.81
2023-02-09T10:56:45.546Z,8.70
2023-02-09T10:59:19.334Z,12.22
2023-02-09T11:02:02.909Z,12.10
2023-02-09T11:04:41.155Z,9.74
2023-02-09T11:07:20.584Z,12.77
2023-02-09T11:09:51.502Z,13.77
2023-02-09T11:12:22.612Z,12.95
2023-02-09T11:14:50.101Z,10.80
2023-02-09T11:17:42.310Z,12.04
2023-02-09T11:21:10.838Z,13.71
2023-02-09T11:24:01.207Z,12.97
2023-02-09T11:26:58.056Z,10.42
2023-02-09T11:29:37.823Z,13.72
2023-02-09T11:33:04.833Z,13.89
2023-02-09T11:36:24.474Z,13.02
2023-02-09T11:39:06.044Z,5.14
2023-02-09T11:42:02.913Z,8.04
2023-02-09T11:44:54.230Z,12.28
2023-02-09T11:47:52.461Z,13.02
2023-02-09T11:51:08.345Z,12.03
2023-02-09T11:54:31.633Z,9.07
2023-02-09T11:57:18.163Z,7.46
2023-02-09T11:59:57.049Z,6.97
2023-02-09T12:02:58.633Z,6.42
2023-02-09T12:05:26.948Z,5.81
2023-02-09T12:08:34.831Z,5.35
2023-02-09T12:11:53.518Z,5.74
2023-02-09T12:14:24.390Z,5.27
2023-02-09T12:17:16.275Z,5.27
2023-02-09T12:19:55.339Z,4.60
2023-02-09T12:22:34.683Z,4.65
2023-02-09T12:25:36.171Z,4.20
2023-02-09T12:28:09.572Z,4.40
2023-02-09T12:30:42.898Z,4.26
2023-02-09T12:33:23.565Z,4.10
2023-02-09T12:36:33.620Z,4.12
2023-02-09T12:40:38.137Z,4.09
2023-02-09T12:43:26.489Z,4.15
2023-02-09T12:46:28.499Z,4.22
2023-02-09T12:49:01.603Z,4.23
2023-02-09T12:51:53.186Z,4.36
2023-02-09T12:54:50.218Z,4.41
2023-02-09T12:57:17.936Z,4.78
2023-02-09T12:59:55.119Z,4.27
2023-02-09T13:02:55.371Z,4.39
2023-02-09T13:05:37.302Z,4.36
2023-02-09T13:08:11.343Z,4.53
2023-02-09T13:10:52.143Z,4.68
2023-02-09T13:13:44.129Z,4.57
2023-02-09T13:16:43.913Z,4.40
2023-02-09T13:19:47.085Z,4.26
2023-02-09T13:22:35.730Z,4.66
2023-02-09T13:25:38.836Z,4.19
2023-02-09T13:28:22.565Z,4.62
2023-02-09T13:30:50.186Z,4.83
2023-02-09T13:33:51.258Z,3.87
2023-02-09T13:37:02.831Z,4.48
2023-02-09T13:39:37.376Z,4.74
2023-02-09T13:42:25.513Z,4.87
2023-02-09T13:44:57.571Z,4.79
2023-02-09T13:47:27.768Z,4.99
2023-02-09T13:50:23.820Z,4.81
2023-02-09T13:52:52.093Z,4.62
2023-02-09T13:55:26.813Z,4.55
2023-02-09T13:58:03.094Z,4.77
2023-02-09T14:00:51.213Z,4.64
2023-02-09T14:03:29.967Z,4.52
2023-02-09T14:06:54.831Z,4.77
2023-02-09T14:09:31.120Z,4.73
2023-02-09T14:12:07.232Z,3.59
2023-02-09T14:15:03.581Z,3.83
2023-02-09T14:17:38.873Z,4.30
2023-02-09T14:20:22.546Z,4.25
2023-02-09T14:23:00.538Z,4.41
2023-02-09T14:25:30.910Z,4.58
2023-02-09T14:27:58.902Z,4.53
2023-02-09T14:30:32.636Z,4.86
2023-02-09T14:33:03.803Z,4.59
2023-02-09T14:35:41.130Z,4.63
2023-02-09T14:38:46.984Z,4.68
2023-02-09T14:41:36.312Z,4.65
2023-02-09T14:44:06.452Z,4.51
2023-02-09T14:46:53.441Z,4.39
2023-02-09T14:49:22.527Z,4.01
2023-02-09T14:52:05.948Z,4.34
2023-02-09T14:54:47.346Z,4.31
2023-02-09T14:57:14.817Z,4.61
2023-02-09T14:59:42.359Z,4.52
2023-02-09T15:02:19.831Z,4.62
2023-02-09T15:04:47.776Z,4.92
2023-02-09T15:07:33.803Z,4.93
2023-02-09T15:10:10.262Z,5.05
2023-02-09T15:12:37.437Z,6.31
2023-02-09T15:15:05.125Z,7.08
2023-02-09T15:17:32.542Z,8.28
2023-02-09T15:19:59.747Z,7.68
2023-02-09T15:22:26.949Z,6.78
2023-02-09T15:24:54.775Z,5.84
2023-02-09T15:27:33.783Z,5.41
2023-02-09T15:30:04.529Z,4.81
2023-02-09T15:32:32.145Z,4.88
2023-02-09T15:34:59.383Z,4.96
2023-02-09T15:37:34.862Z,5.64
2023-02-09T15:40:50.458Z,7.42
2023-02-09T15:43:42.974Z,7.34
2023-02-09T15:46:30.013Z,8.17
2023-02-09T15:48:57.317Z,7.83
2023-02-09T15:51:28.490Z,6.98
2023-02-09T15:54:01.185Z,6.40
2023-02-09T15:56:28.859Z,5.47
2023-02-09T15:59:03.271Z,5.11
2023-02-09T16:01:34.408Z,5.05
2023-02-09T16:04:13.827Z,4.67
2023-02-09T16:06:49.593Z,4.91
2023-02-09T16:09:26.711Z,4.66
2023-02-09T16:11:54.401Z,4.32
2023-02-09T16:14:25.627Z,4.22
2023-02-09T16:16:53.611Z,4.07
2023-02-09T16:19:21.438Z,3.88
2023-02-09T16:21:58.825Z,3.83
2023-02-09T16:24:40.019Z,3.80
2023-02-09T16:27:28.969Z,3.72
2023-02-09T16:29:58.492Z,3.58
2023-02-09T16:32:28.421Z,3.79
2023-02-09T16:35:04.556Z,3.55
2023-02-09T16:37:38.307Z,3.22
2023-02-09T16:40:24.708Z,3.09
2023-02-09T16:42:52.327Z,2.94
2023-02-09T16:45:20.393Z,3.05
2023-02-09T16:47:54.832Z,3.11
2023-02-09T16:50:35.460Z,3.02
2023-02-09T16:53:18.220Z,2.88
2023-02-09T16:55:48.923Z,2.90
2023-02-09T16:58:18.330Z,2.81
2023-02-09T17:00:45.874Z,2.68
2023-02-09T17:03:33.163Z,2.58
2023-02-09T17:06:02.314Z,2.64
2023-02-09T17:08:35.144Z,2.47
2023-02-09T17:11:04.149Z,2.44
2023-02-09T17:13:32.038Z,2.52
2023-02-09T17:16:06.230Z,2.45
2023-02-09T17:18:42.434Z,2.63
2023-02-09T17:21:25.532Z,2.44
2023-02-09T17:23:54.418Z,2.32
2023-02-09T17:26:21.703Z,2.42
2023-02-09T17:28:48.900Z,2.29
2023-02-09T17:31:36.088Z,2.19
2023-02-09T17:34:09.443Z,2.18
2023-02-09T17:36:37.534Z,2.08
2023-02-09T17:39:04.893Z,2.02
2023-02-09T17:41:37.366Z,1.96
2023-02-09T17:44:31.595Z,2.07
2023-02-09T17:47:06.004Z,1.97
2023-02-09T17:49:34.122Z,1.83
2023-02-09T17:52:01.374Z,1.69
2023-02-09T17:54:28.904Z,1.61
2023-02-09T17:56:56.048Z,1.64
2023-02-09T17:59:23.273Z,1.62
2023-02-09T18:01:50.673Z,1.69
2023-02-09T18:04:24.778Z,1.63
2023-02-09T18:06:52.176Z,1.53
2023-02-09T18:09:19.531Z,1.39
2023-02-09T18:11:52.371Z,1.20
2023-02-09T18:14:22.106Z,1.15
2023-02-09T18:16:49.807Z,1.17
2023-02-09T18:19:17.735Z,1.16
2023-02-09T18:21:55.373Z,1.35
2023-02-09T18:24:27.415Z,1.43
2023-02-09T18:26:55.246Z,1.30
2023-02-09T18:29:28.962Z,1.18
2023-02-09T18:32:02.096Z,1.19
2023-02-09T18:34:30.121Z,1.23
2023-02-09T18:36:57.285Z,1.24
2023-02-09T18:39:24.504Z,1.15
2023-02-09T18:41:54.788Z,1.10
2023-02-09T18:44:29.467Z,1.02
2023-02-09T18:47:00.535Z,1.03
2023-02-09T18:49:28.639Z,1.01
2023-02-09T18:51:56.955Z,0.98
2023-02-09T18:54:27.143Z,0.96
2023-02-09T18:56:55.814Z,0.92
2023-02-09T18:59:23.015Z,0.78
2023-02-09T19:01:50.706Z,0.74
2023-02-09T19:04:18.626Z,0.68
2023-02-09T19:06:45.783Z,0.63
2023-02-09T19:09:13.113Z,0.57
2023-02-09T19:11:40.575Z,0.67
2023-02-09T19:14:26.518Z,0.59
2023-02-09T19:16:53.773Z,0.58
2023-02-09T19:19:21.145Z,0.45
2023-02-09T19:21:51.957Z,0.30
2023-02-09T19:24:19.429Z,0.16
2023-02-09T19:26:46.676Z,0.09
2023-02-09T19:29:14.217Z,0.04
2023-02-09T19:31:41.588Z,0.01
2023-02-09T19:34:08.788Z,-0.03
2023-02-09T19:36:35.951Z,-0.10
2023-02-09T19:39:03.372Z,-0.09
2023-02-09T19:41:31.168Z,-0.09
2023-02-09T19:43:58.551Z,-0.05
2023-02-09T19:46:25.931Z,-0.02
2023-02-09T19:48:57.462Z,-0.04
2023-02-09T19:51:24.986Z,0.03
2023-02-09T19:53:52.347Z,-0.07
2023-02-09T19:56:26.263Z,-0.12
2023-02-09T19:58:53.695Z,-0.13
2023-02-09T20:01:21.601Z,-0.17
2023-02-09T20:03:49.561Z,-0.23
2023-02-09T20:06:18.441Z,-0.32
2023-02-09T20:08:45.609Z,-0.37
2023-02-09T20:11:20.114Z,-0.40
2023-02-09T20:13:51.648Z,-0.43
2023-02-09T20:16:24.852Z,-0.42
2023-02-09T20:18:53.431Z,-0.42
2023-02-09T20:21:23.558Z,-0.46
2023-02-09T20:23:55.739Z,-0.50
2023-02-09T20:26:29.480Z,-0.51
2023-02-09T20:28:58.729Z,-0.55
2023-02-09T20:31:32.655Z,-0.49
2023-02-09T20:34:05.142Z,-0.44
2023-02-09T20:36:38.655Z,-0.54
2023-02-09T20:39:10.891Z,-0.56
2023-02-09T20:41:38.158Z,-0.51
2023-02-09T20:44:23.927Z,-0.57
2023-02-09T20:46:57.220Z,-0.72
2023-02-09T20:49:31.129Z,-0.88
2023-02-09T20:51:58.495Z,-0.89
2023-02-09T20:54:25.902Z,-0.96
2023-02-09T20:56:53.119Z,-1.01
2023-02-09T20:59:20.366Z,-1.07
2023-02-09T21:01:48.032Z,-1.17
2023-02-09T21:04:15.598Z,-1.20
2023-02-09T21:06:43.094Z,-1.27
2023-02-09T21:09:15.901Z,-1.27
2023-02-09T21:11:43.253Z,-1.28
2023-02-09T21:14:21.761Z,-1.33
2023-02-09T21:16:56.244Z,-1.40
2023-02-09T21:19:25.975Z,-1.47
2023-02-09T21:21:53.545Z,-1.54
2023-02-09T21:24:21.377Z,-1.55
2023-02-09T21:26:49.626Z,-1.56
2023-02-09T21:29:18.214Z,-1.56
2023-02-09T21:31:45.621Z,-1.60
2023-02-09T21:34:15.971Z,-1.71
2023-02-09T21:36:43.835Z,-1.85
2023-02-09T21:39:11.128Z,-1.89
2023-02-09T21:41:57.087Z,-1.94
2023-02-09T21:44:24.330Z,-2.02
2023-02-09T21:46:51.565Z,-1.95
2023-02-09T21:49:18.684Z,-1.96
2023-02-09T21:51:46.068Z,-1.98
2023-02-09T21:54:17.795Z,-2.00
2023-02-09T21:56:45.429Z,-2.07
2023-02-09T21:59:12.738Z,-2.12
2023-02-09T22:01:41.808Z,-2.07
2023-02-09T22:04:09.208Z,-2.10
2023-02-09T22:06:36.534Z,-2.11
2023-02-09T22:09:06.208Z,-2.21
2023-02-09T22:11:33.906Z,-2.21
2023-02-09T22:14:01.124Z,-2.23
2023-02-09T22:16:29.422Z,-2.28
2023-02-09T22:18:56.997Z,-2.26
2023-02-09T22:21:24.183Z,-2.30
2023-02-09T22:23:53.479Z,-2.31
2023-02-09T22:26:21.203Z,-2.27
2023-02-09T22:28:48.725Z,-2.17
2023-02-09T22:31:20.195Z,-2.21
2023-02-09T22:33:48.296Z,-2.09
2023-02-09T22:36:21.346Z,-2.03
2023-02-09T22:38:48.657Z,-1.93
2023-02-09T22:41:23.690Z,-1.75
2023-02-09T22:43:58.373Z,-1.77
2023-02-09T22:46:38.635Z,-1.84
2023-02-09T22:49:17.467Z,-1.82
2023-02-09T22:51:47.503Z,-1.97
2023-02-09T22:54:18.352Z,-2.15
2023-02-09T22:56:46.196Z,-2.31
2023-02-09T22:59:15.170Z,-2.33
2023-02-09T23:01:43.067Z,-2.34
2023-02-09T23:04:10.487Z,-2.35
2023-02-09T23:06:37.732Z,-2.43
2023-02-09T23:09:07.900Z,-2.32
2023-02-09T23:11:36.252Z,-2.38
2023-02-09T23:14:09.616Z,-2.65
2023-02-09T23:16:40.922Z,-2.80
2023-02-09T23:19:18.435Z,-2.68
2023-02-09T23:21:51.854Z,-2.65
2023-02-09T23:24:22.155Z,-2.59
2023-02-09T23:26:49.527Z,-2.48
2023-02-09T23:29:18.812Z,-2.51
2023-02-09T23:31:47.999Z,-2.55
2023-02-09T23:34:22.162Z,-2.54
2023-02-09T23:36:49.537Z,-2.63
2023-02-09T23:39:22.278Z,-2.61
2023-02-09T23:41:49.843Z,-2.55
2023-02-09T23:44:17.064Z,-2.58
2023-02-09T23:46:44.771Z,-2.61
2023-02-09T23:49:12.365Z,-2.65
2023-02-09T23:51:39.612Z,-2.73
2023-02-09T23:54:07.962Z,-2.83
2023-02-09T23:56:38.635Z,-2.89
2023-02-09T23:59:13.151Z,-3.01
